Cromwell, Minnesota
Current Conditions -  °F | °C
As of 1:56 AM on Wednesday 22 Oct 2014 (Local Time) from KCOQ Reporting Station
Clear Clear  
Wind Chill: 37°   Ceiling: Unl
Heat Index: 37°   Visibility: 10mi
Dew Point: 34°   Wind: 3mph
Humidity: 87%   Direction: 110°ESE
Pressure: 30.18"   Gusts: NA
Location:  46.68°N, 92.88°W
Report Text: KCOQ 220656Z AUTO 11003KT 10SM CLR 03/01 A3018 RMK AO2
Loading
Personal Weather Stations






























Interactive Weather Map
Tropical Storm Tracking
New forecast layout! Learn more

10-Day Weather Forecast

Advertisements
Track Severe Weather on mobile